Time;durP1;ratioP1;P1;durP2;ratioP2;P2;SDS_P1;SDS_P2;PMS_P1;PMS_P2;Temp;Humidity;BMP_temperature;BMP_pressure;BME280_temperature;BME280_humidity;BME280_pressure;Samples;Min_cycle;Max_cycle;Signal;HPM_P1;HPM_P2
2022/07/12 00:00:20;;;;;;;3.28;1.10;;;19.70;53.90;;;;;;5113038;28;20026;-71
2022/07/12 00:02:46;;;;;;;0.98;0.77;;;19.70;53.80;;;;;;5113386;28;20012;-72
2022/07/12 00:05:11;;;;;;;1.25;0.93;;;19.70;54.10;;;;;;5113224;28;20157;-69
2022/07/12 00:07:37;;;;;;;4.93;0.85;;;19.60;54.70;;;;;;5113242;28;20446;-69
2022/07/12 00:10:04;;;;;;;1.38;0.93;;;19.60;54.10;;;;;;5111686;28;20468;-68
2022/07/12 00:12:30;;;;;;;1.13;0.90;;;19.50;54.40;;;;;;5113040;28;20031;-68
2022/07/12 00:14:55;;;;;;;0.90;0.90;;;19.50;54.10;;;;;;5113092;28;20012;-68
2022/07/12 00:17:21;;;;;;;0.80;0.80;;;19.50;54.40;;;;;;5112982;28;20099;-71
2022/07/12 00:19:47;;;;;;;2.05;1.00;;;19.40;54.30;;;;;;5112901;28;20036;-70
2022/07/12 00:22:13;;;;;;;0.88;0.73;;;19.40;54.50;;;;;;5112889;28;20023;-69
2022/07/12 00:24:38;;;;;;;1.70;0.88;;;19.40;54.80;;;;;;5112992;28;20482;-68
2022/07/12 00:27:04;;;;;;;0.93;0.60;;;19.30;55.10;;;;;;5112754;28;20011;-70
2022/07/12 00:29:30;;;;;;;2.90;1.10;;;19.30;55.20;;;;;;5112814;28;20072;-71
2022/07/12 00:31:56;;;;;;;2.65;0.70;;;19.20;55.40;;;;;;5111532;28;20058;-70
2022/07/12 00:34:22;;;;;;;0.60;0.60;;;19.20;55.20;;;;;;5112531;28;20051;-69
2022/07/12 00:36:47;;;;;;;3.22;0.70;;;19.20;55.00;;;;;;5112899;28;20019;-70
2022/07/12 00:39:13;;;;;;;0.73;0.50;;;19.10;55.00;;;;;;5112789;28;20024;-69
2022/07/12 00:41:39;;;;;;;0.52;0.50;;;19.10;54.90;;;;;;5112748;28;20380;-70
2022/07/12 00:44:05;;;;;;;0.55;0.40;;;19.10;55.00;;;;;;5112684;28;20020;-69
2022/07/12 00:46:31;;;;;;;1.02;0.60;;;19.10;55.00;;;;;;5111991;28;20031;-71
2022/07/12 00:48:57;;;;;;;1.63;0.80;;;19.10;55.10;;;;;;5112609;28;20534;-68
2022/07/12 00:51:25;;;;;;;1.13;0.65;;;19.10;55.20;;;;;;5112522;28;20020;-69
2022/07/12 00:53:52;;;;;;;0.38;0.38;;;19.10;55.00;;;;;;5112444;28;20020;-71
2022/07/12 00:56:18;;;;;;;1.33;0.60;;;19.10;55.00;;;;;;5112394;28;20099;-72
2022/07/12 00:58:44;;;;;;;0.68;0.55;;;19.10;55.40;;;;;;5112921;28;20103;-70
2022/07/12 01:01:10;;;;;;;1.10;0.63;;;19.10;55.40;;;;;;5112211;28;20030;-69
2022/07/12 01:03:36;;;;;;;0.93;0.68;;;19.10;55.30;;;;;;5112064;28;20008;-71
2022/07/12 01:06:02;;;;;;;0.68;0.50;;;19.10;55.90;;;;;;5111821;28;20020;-69
2022/07/12 01:08:30;;;;;;;0.57;0.57;;;19.10;55.20;;;;;;5109861;28;20103;-71
2022/07/12 01:10:56;;;;;;;0.75;0.60;;;19.10;55.60;;;;;;5112164;28;20428;-70
2022/07/12 01:13:22;;;;;;;1.00;0.80;;;19.10;55.60;;;;;;5111917;28;20024;-69
2022/07/12 01:15:49;;;;;;;0.75;0.70;;;19.10;55.50;;;;;;5110653;28;20464;-69
2022/07/12 01:18:15;;;;;;;1.50;0.80;;;19.20;55.50;;;;;;5110599;28;20080;-71
2022/07/12 01:20:41;;;;;;;2.63;0.90;;;19.20;55.50;;;;;;5111355;28;20123;-70
2022/07/12 01:23:09;;;;;;;1.00;0.85;;;19.20;55.40;;;;;;5111765;28;20100;-69
2022/07/12 01:25:35;;;;;;;0.80;0.63;;;19.20;55.50;;;;;;5111717;28;20012;-70
2022/07/12 01:28:01;;;;;;;1.10;0.90;;;19.20;55.40;;;;;;5111704;28;20092;-70
2022/07/12 01:30:27;;;;;;;5.97;0.90;;;19.10;55.40;;;;;;5109134;28;20016;-72
2022/07/12 01:32:53;;;;;;;0.98;0.90;;;19.10;55.90;;;;;;5111561;28;20020;-71
2022/07/12 01:35:20;;;;;;;2.80;1.10;;;19.10;56.00;;;;;;5111650;28;20361;-69
2022/07/12 01:37:46;;;;;;;1.52;0.80;;;19.10;56.00;;;;;;5108895;28;20020;-68
2022/07/12 01:40:14;;;;;;;0.73;0.70;;;19.10;56.10;;;;;;5111470;28;20495;-68
2022/07/12 01:42:41;;;;;;;1.30;0.70;;;19.10;56.10;;;;;;5111522;28;20015;-69
2022/07/12 01:45:08;;;;;;;0.77;0.70;;;19.10;56.10;;;;;;5108906;28;20039;-71
2022/07/12 01:47:34;;;;;;;1.05;0.70;;;19.10;56.40;;;;;;5111437;28;20019;-68
2022/07/12 01:50:02;;;;;;;1.08;0.80;;;19.20;56.40;;;;;;5110057;28;20168;-71
2022/07/12 01:52:28;;;;;;;0.73;0.68;;;19.20;56.30;;;;;;5108973;28;20084;-71
2022/07/12 01:54:56;;;;;;;2.13;0.98;;;19.20;56.30;;;;;;5110137;28;20047;-69
2022/07/12 01:57:23;;;;;;;1.05;0.95;;;19.20;56.40;;;;;;5111055;28;20387;-69
2022/07/12 01:59:48;;;;;;;0.60;0.60;;;19.20;56.40;;;;;;5115499;28;20023;-68
2022/07/12 02:02:14;;;;;;;3.35;0.90;;;19.20;56.40;;;;;;5115724;28;20026;-70
2022/07/12 02:04:40;;;;;;;0.85;0.82;;;19.20;56.60;;;;;;5115575;28;20032;-70
2022/07/12 02:07:06;;;;;;;1.08;0.73;;;19.30;56.60;;;;;;5111372;28;20024;-70
2022/07/12 02:09:32;;;;;;;0.80;0.80;;;19.30;56.30;;;;;;5115557;28;20054;-69
2022/07/12 02:11:58;;;;;;;0.98;0.80;;;19.30;56.30;;;;;;5115494;28;20412;-69
2022/07/12 02:14:24;;;;;;;1.63;1.20;;;19.30;56.20;;;;;;5115365;28;20027;-70
2022/07/12 02:16:50;;;;;;;1.50;0.80;;;19.30;56.30;;;;;;5113997;28;20616;-69
2022/07/12 02:19:16;;;;;;;1.30;0.70;;;19.30;56.10;;;;;;5115089;28;20055;-69
2022/07/12 02:21:42;;;;;;;0.98;0.70;;;19.30;56.00;;;;;;5113786;28;20439;-71
2022/07/12 02:24:08;;;;;;;0.68;0.68;;;19.30;56.10;;;;;;5115139;28;20043;-69
2022/07/12 02:26:35;;;;;;;1.02;0.60;;;19.30;56.00;;;;;;5114963;28;20043;-71
2022/07/12 02:29:02;;;;;;;1.45;0.90;;;19.20;55.90;;;;;;5114935;28;20024;-69
2022/07/12 02:31:27;;;;;;;1.23;0.90;;;19.20;56.10;;;;;;5115013;28;20028;-71
2022/07/12 02:33:53;;;;;;;0.60;0.60;;;19.20;56.00;;;;;;5113637;28;20016;-70
2022/07/12 02:36:19;;;;;;;1.23;0.80;;;19.20;56.00;;;;;;5113783;28;20031;-70
2022/07/12 02:38:45;;;;;;;0.75;0.75;;;19.10;56.20;;;;;;5113874;28;20073;-71
2022/07/12 02:41:11;;;;;;;1.10;0.80;;;19.10;56.20;;;;;;5114694;28;20016;-70
2022/07/12 02:43:37;;;;;;;1.92;1.33;;;19.10;56.80;;;;;;5114717;28;20465;-69
2022/07/12 02:46:08;;;;;;;1.15;1.00;;;19.10;56.50;;;;;;5114804;28;20038;-69
2022/07/12 02:48:34;;;;;;;4.72;1.00;;;19.10;56.60;;;;;;5114564;28;20460;-69
2022/07/12 02:51:01;;;;;;;2.80;1.30;;;19.10;56.60;;;;;;5114531;28;20038;-71
2022/07/12 02:53:28;;;;;;;0.70;0.70;;;19.10;56.80;;;;;;5114533;28;20051;-70
2022/07/12 02:55:53;;;;;;;1.17;0.88;;;19.20;56.80;;;;;;5114395;28;20015;-70
2022/07/12 02:58:19;;;;;;;1.17;0.80;;;19.20;57.00;;;;;;5114491;28;20034;-70
2022/07/12 03:00:45;;;;;;;2.35;1.00;;;19.30;57.00;;;;;;5114115;28;20019;-71
2022/07/12 03:03:12;;;;;;;1.17;0.80;;;19.30;57.00;;;;;;5113149;28;20395;-69
2022/07/12 03:05:39;;;;;;;1.60;1.00;;;19.30;56.90;;;;;;5114124;28;20039;-69
2022/07/12 03:08:06;;;;;;;2.72;1.35;;;19.30;56.80;;;;;;5114191;28;20055;-70
2022/07/12 03:10:32;;;;;;;0.93;0.82;;;19.30;56.80;;;;;;5110756;28;20353;-69
2022/07/12 03:12:58;;;;;;;1.08;0.73;;;19.40;56.70;;;;;;5114171;28;20045;-68
2022/07/12 03:15:23;;;;;;;2.45;1.17;;;19.40;56.70;;;;;;5114036;28;20030;-67
2022/07/12 03:17:49;;;;;;;0.90;0.70;;;19.40;56.90;;;;;;5113920;28;20468;-69
2022/07/12 03:20:15;;;;;;;0.82;0.82;;;19.40;56.90;;;;;;5113670;28;20089;-68
2022/07/12 03:22:41;;;;;;;1.45;0.90;;;19.50;57.00;;;;;;5113882;28;20027;-69
2022/07/12 03:25:08;;;;;;;1.27;0.98;;;19.50;57.20;;;;;;5113882;28;20023;-69
2022/07/12 03:27:34;;;;;;;1.88;0.90;;;19.50;57.10;;;;;;5113939;28;20500;-71
2022/07/12 03:30:00;;;;;;;3.70;0.98;;;19.50;57.00;;;;;;5114416;28;20349;-68
2022/07/12 03:32:25;;;;;;;1.40;0.80;;;19.50;56.90;;;;;;5113796;28;20053;-70
2022/07/12 03:34:52;;;;;;;1.40;1.10;;;19.60;57.00;;;;;;5113854;28;20030;-69
2022/07/12 03:37:17;;;;;;;0.73;0.63;;;19.60;57.00;;;;;;5113656;28;20016;-69
2022/07/12 03:39:43;;;;;;;1.30;0.88;;;19.60;57.10;;;;;;5113546;28;20406;-70
2022/07/12 03:42:11;;;;;;;1.13;0.80;;;19.60;56.90;;;;;;5113567;28;20020;-69
2022/07/12 03:44:36;;;;;;;1.88;1.00;;;19.60;56.90;;;;;;5113730;28;20461;-68
2022/07/12 03:47:02;;;;;;;2.47;1.42;;;19.60;56.90;;;;;;5113526;28;20028;-68
2022/07/12 03:49:28;;;;;;;1.17;1.00;;;19.70;56.90;;;;;;5113358;28;20026;-70
2022/07/12 03:51:54;;;;;;;1.42;0.88;;;19.70;56.80;;;;;;5113638;28;20026;-69
2022/07/12 03:54:20;;;;;;;1.55;0.80;;;19.70;56.90;;;;;;5113410;28;20031;-70
2022/07/12 03:59:30;;;;;;;;;;;19.70;57.20;;;;;;5113671;28;20624;-69
2022/07/12 04:01:56;;;;;;;0.98;0.80;;;19.70;56.50;;;;;;5113132;28;19907;-69
2022/07/12 04:04:21;;;;;;;1.02;0.95;;;19.80;56.90;;;;;;5112155;28;20051;-68
2022/07/12 04:06:47;;;;;;;2.60;1.02;;;19.80;57.00;;;;;;5113140;28;20254;-69
2022/07/12 04:09:13;;;;;;;2.55;0.90;;;19.80;56.90;;;;;;5113171;28;20460;-71
2022/07/12 04:11:39;;;;;;;1.23;1.05;;;19.80;56.90;;;;;;5113523;28;20028;-69
2022/07/12 04:14:05;;;;;;;3.38;1.40;;;19.80;56.90;;;;;;5112208;28;20023;-68
2022/07/12 04:16:31;;;;;;;1.33;1.00;;;19.90;57.00;;;;;;5113359;28;20036;-69
2022/07/12 04:18:57;;;;;;;3.63;1.10;;;19.90;57.00;;;;;;5113234;28;20059;-68
2022/07/12 04:21:23;;;;;;;2.53;1.02;;;20.00;57.10;;;;;;5111998;28;20541;-70
2022/07/12 04:23:49;;;;;;;2.42;1.30;;;20.10;57.20;;;;;;5113291;28;20023;-69
2022/07/12 04:26:14;;;;;;;1.35;1.10;;;20.10;57.10;;;;;;5113092;28;20394;-70
2022/07/12 04:28:40;;;;;;;1.63;0.98;;;20.20;57.00;;;;;;5113141;28;20031;-68
2022/07/12 04:31:09;;;;;;;3.53;1.08;;;20.30;56.90;;;;;;5111597;28;20028;-73
2022/07/12 04:33:35;;;;;;;4.03;1.20;;;20.40;56.60;;;;;;5113018;28;20106;-69
2022/07/12 04:36:04;;;;;;;6.60;1.27;;;20.40;56.50;;;;;;5112945;28;20126;-71
2022/07/12 04:38:30;;;;;;;1.67;1.00;;;20.50;56.40;;;;;;5113093;28;20047;-69
2022/07/12 04:40:55;;;;;;;1.40;1.17;;;20.60;56.20;;;;;;5112891;28;20031;-69
2022/07/12 04:43:24;;;;;;;2.38;1.00;;;20.70;55.90;;;;;;5113005;28;20024;-69
2022/07/12 04:45:50;;;;;;;1.25;0.90;;;20.70;55.70;;;;;;5112795;28;20027;-71
2022/07/12 04:48:16;;;;;;;3.70;1.30;;;20.80;55.60;;;;;;5112801;28;20024;-69
2022/07/12 04:50:42;;;;;;;1.00;0.85;;;20.90;55.40;;;;;;5113100;28;20049;-71
2022/07/12 04:53:08;;;;;;;1.38;1.00;;;21.00;55.20;;;;;;5113070;28;20484;-69
2022/07/12 04:55:34;;;;;;;3.75;1.25;;;21.00;54.80;;;;;;5112709;28;20023;-70
2022/07/12 04:58:00;;;;;;;2.05;1.10;;;21.10;54.50;;;;;;5111450;28;20415;-69
2022/07/12 05:00:26;;;;;;;2.85;1.35;;;21.10;54.30;;;;;;5112587;28;20098;-70
2022/07/12 05:02:53;;;;;;;18.95;1.80;;;21.10;54.40;;;;;;5104656;28;20089;-69
2022/07/12 05:05:19;;;;;;;4.28;1.80;;;21.10;54.40;;;;;;5092163;28;20499;-70
2022/07/12 05:07:45;;;;;;;5.50;1.40;;;21.10;54.50;;;;;;5093439;28;20032;-68
2022/07/12 05:10:11;;;;;;;6.15;1.58;;;21.00;55.10;;;;;;5112437;28;20068;-68
2022/07/12 05:12:37;;;;;;;4.93;1.20;;;21.00;54.50;;;;;;5111970;28;20020;-71
2022/07/12 05:15:07;;;;;;;8.93;1.10;;;21.10;54.60;;;;;;5119549;27;20088;-68
2022/07/12 05:17:33;;;;;;;1.27;1.13;;;21.10;54.60;;;;;;5121018;27;20472;-70
2022/07/12 05:19:59;;;;;;;1.55;1.20;;;21.00;54.50;;;;;;5107448;27;20134;-72
2022/07/12 05:22:24;;;;;;;1.33;1.10;;;21.00;54.50;;;;;;5107936;27;20486;-69
2022/07/12 05:24:50;;;;;;;1.98;1.20;;;21.00;54.50;;;;;;5110706;28;20028;-71
2022/07/12 05:27:16;;;;;;;2.22;1.25;;;21.00;54.50;;;;;;5111387;28;20069;-69
2022/07/12 05:29:42;;;;;;;2.88;1.08;;;21.10;54.50;;;;;;5111719;28;20524;-69
2022/07/12 05:32:08;;;;;;;2.90;1.40;;;21.10;54.50;;;;;;5112564;28;20028;-69
2022/07/12 05:34:33;;;;;;;1.42;1.10;;;21.10;54.40;;;;;;5112975;28;20063;-71
2022/07/12 05:37:00;;;;;;;2.20;1.20;;;21.20;54.40;;;;;;5113072;28;20032;-70
2022/07/12 05:39:25;;;;;;;3.13;1.10;;;21.20;54.20;;;;;;5112951;28;20028;-71
2022/07/12 05:41:52;;;;;;;3.58;1.25;;;21.30;54.10;;;;;;5112303;28;20024;-71
2022/07/12 05:44:18;;;;;;;3.25;1.33;;;21.40;53.80;;;;;;5112328;28;20727;-69
2022/07/12 05:46:45;;;;;;;1.98;1.25;;;21.40;53.60;;;;;;5092966;28;20073;-71
2022/07/12 05:49:12;;;;;;;6.22;1.20;;;21.50;53.50;;;;;;5092677;28;20068;-72
2022/07/12 05:54:22;;;;;;;2.95;1.10;;;21.60;53.20;;;;;;5094002;28;20132;-70
2022/07/12 05:56:48;;;;;;;1.75;0.95;;;21.70;53.20;;;;;;5110239;28;20031;-70
2022/07/12 05:59:14;;;;;;;1.80;1.10;;;21.80;52.90;;;;;;5110136;28;20047;-69
2022/07/12 06:01:40;;;;;;;1.98;1.20;;;21.90;53.30;;;;;;5109689;28;20516;-70
2022/07/12 06:04:07;;;;;;;24.15;2.33;;;21.90;52.50;;;;;;5112812;28;20487;-70
2022/07/12 06:06:33;;;;;;;5.05;1.40;;;22.00;52.50;;;;;;5112552;28;20019;-70
2022/07/12 06:08:59;;;;;;;8.90;1.10;;;22.10;52.00;;;;;;5112813;28;20034;-69
2022/07/12 06:11:25;;;;;;;69.50;4.82;;;22.10;52.00;;;;;;5109665;28;20043;-70
2022/07/12 06:13:50;;;;;;;84.30;4.25;;;22.20;52.00;;;;;;5110896;28;20039;-71
2022/07/12 06:16:16;;;;;;;27.35;2.45;;;22.30;52.00;;;;;;5111754;28;20028;-70
2022/07/12 06:18:42;;;;;;;229.13;12.05;;;22.30;51.80;;;;;;5097991;28;20059;-71
2022/07/12 06:21:08;;;;;;;252.02;16.92;;;22.50;51.90;;;;;;5091976;28;20117;-71
2022/07/12 06:23:34;;;;;;;52.85;3.85;;;22.60;51.50;;;;;;5092266;28;20039;-69
2022/07/12 06:26:00;;;;;;;63.28;4.57;;;22.60;50.90;;;;;;5093411;28;20552;-70
2022/07/12 06:28:26;;;;;;;1499.38;108.10;;;22.60;50.70;;;;;;5104737;28;20031;-69
2022/07/12 06:30:52;;;;;;;1736.53;105.57;;;22.60;50.50;;;;;;5106143;28;20024;-71
2022/07/12 06:33:17;;;;;;;147.90;11.18;;;22.60;50.40;;;;;;5102482;28;20023;-70
2022/07/12 06:35:43;;;;;;;137.68;9.43;;;22.60;50.50;;;;;;5133120;28;20029;-70
2022/07/12 06:38:09;;;;;;;299.10;16.52;;;22.60;50.50;;;;;;5133226;28;20105;-70
2022/07/12 06:40:35;;;;;;;92.93;5.25;;;22.60;50.70;;;;;;5122263;28;20028;-71
2022/07/12 06:43:00;;;;;;;23.13;2.63;;;22.70;50.50;;;;;;5120534;28;20024;-69
2022/07/12 06:45:26;;;;;;;93.03;6.25;;;22.90;50.20;;;;;;5121832;27;20387;-70
2022/07/12 06:47:53;;;;;;;33.25;3.08;;;23.00;49.80;;;;;;5136958;27;20019;-72
2022/07/12 06:50:19;;;;;;;16.58;1.80;;;23.20;49.80;;;;;;5133223;27;20016;-69
2022/07/12 06:52:44;;;;;;;58.78;2.38;;;23.40;49.60;;;;;;5104424;28;20437;-68
2022/07/12 06:55:10;;;;;;;12.75;1.70;;;23.60;49.40;;;;;;5104158;28;20036;-70
2022/07/12 06:57:37;;;;;;;66.47;5.05;;;23.70;48.70;;;;;;5104734;28;20016;-70
2022/07/12 07:00:04;;;;;;;1337.80;83.80;;;23.90;48.10;;;;;;5106605;28;20020;-69
2022/07/12 07:02:30;;;;;;;45.08;5.40;;;24.10;48.60;;;;;;5095176;28;20032;-70
2022/07/12 07:04:56;;;;;;;563.35;36.60;;;24.30;47.70;;;;;;5095347;28;20024;-70
2022/07/12 07:07:22;;;;;;;122.78;6.90;;;24.40;47.50;;;;;;5094085;28;20016;-71
2022/07/12 07:09:48;;;;;;;133.98;9.30;;;24.50;46.70;;;;;;5093857;28;20103;-70
2022/07/12 07:12:14;;;;;;;145.13;6.57;;;24.60;46.40;;;;;;5095230;28;20105;-71
2022/07/12 07:14:40;;;;;;;20.42;1.70;;;24.70;45.80;;;;;;5095409;28;20282;-70
2022/07/12 07:17:06;;;;;;;9.00;1.55;;;24.80;45.80;;;;;;5095248;28;20035;-71
2022/07/12 07:19:31;;;;;;;5.70;1.20;;;24.90;45.80;;;;;;5094855;28;20039;-72
2022/07/12 07:21:58;;;;;;;9.85;1.40;;;25.00;45.50;;;;;;5095046;28;20035;-70
2022/07/12 07:24:24;;;;;;;9.45;1.23;;;25.00;45.40;;;;;;5093995;28;20424;-72
2022/07/12 07:26:50;;;;;;;8.60;1.30;;;25.00;45.10;;;;;;5093993;28;20020;-69
2022/07/12 07:32:01;;;;;;;11.57;1.40;;;25.20;44.30;;;;;;5095147;28;20051;-71
2022/07/12 07:34:26;;;;;;;5.07;1.92;;;25.30;44.40;;;;;;5094874;28;20024;-71
2022/07/12 07:36:53;;;;;;;3.05;1.10;;;25.30;43.90;;;;;;5094834;28;20370;-71
2022/07/12 07:39:19;;;;;;;4.93;1.30;;;25.30;43.60;;;;;;5094785;28;20047;-69
2022/07/12 07:41:47;;;;;;;4.63;1.20;;;25.40;43.50;;;;;;5094582;28;20056;-70
2022/07/12 07:44:13;;;;;;;5.20;1.80;;;25.40;44.00;;;;;;5094514;28;20493;-70
2022/07/12 07:46:39;;;;;;;23.38;1.48;;;25.50;43.80;;;;;;5094599;28;20046;-70
2022/07/12 07:49:05;;;;;;;3.22;1.10;;;25.60;43.00;;;;;;5094587;28;20061;-71
2022/07/12 07:51:30;;;;;;;2.75;1.30;;;25.60;42.80;;;;;;5094455;28;20035;-72
2022/07/12 07:53:56;;;;;;;6.25;1.20;;;25.60;42.90;;;;;;5094489;28;20387;-71
2022/07/12 07:56:22;;;;;;;4.80;1.10;;;25.60;43.00;;;;;;5094367;28;20067;-71
2022/07/12 07:58:48;;;;;;;5.10;1.20;;;25.60;42.60;;;;;;5093079;28;20024;-70
2022/07/12 08:01:14;;;;;;;3.15;1.20;;;25.50;42.80;;;;;;5094559;28;20047;-70
2022/07/12 08:03:39;;;;;;;9.77;1.73;;;25.50;42.70;;;;;;5094303;28;20020;-69
2022/07/12 08:06:06;;;;;;;17.35;1.48;;;25.40;42.30;;;;;;5094232;28;20027;-72
2022/07/12 08:08:31;;;;;;;13.98;1.50;;;25.40;42.20;;;;;;5093990;28;20534;-71
2022/07/12 08:10:57;;;;;;;263.67;15.00;;;25.30;42.70;;;;;;5093978;28;20028;-72
2022/07/12 08:13:23;;;;;;;553.42;23.92;;;25.40;41.70;;;;;;5094053;28;20074;-72
2022/07/12 08:15:50;;;;;;;79.88;4.50;;;25.40;41.70;;;;;;5092693;28;20031;-72
2022/07/12 08:18:15;;;;;;;131.38;6.70;;;25.40;41.30;;;;;;5093995;28;20035;-70
2022/07/12 08:20:41;;;;;;;84.20;3.95;;;25.50;41.90;;;;;;5093750;28;20036;-70
2022/07/12 08:23:08;;;;;;;4.22;1.20;;;25.50;42.20;;;;;;5093971;28;20430;-69
2022/07/12 08:25:33;;;;;;;15.05;1.63;;;25.60;41.80;;;;;;5093776;28;20020;-69
2022/07/12 08:27:59;;;;;;;33.88;3.58;;;25.60;41.40;;;;;;5092462;28;20423;-69
2022/07/12 08:30:25;;;;;;;698.67;40.05;;;25.70;41.80;;;;;;5093731;28;20020;-70
2022/07/12 08:32:51;;;;;;;165.93;10.32;;;25.80;41.70;;;;;;5093797;28;20026;-70
2022/07/12 08:35:19;;;;;;;51.65;4.28;;;25.90;41.00;;;;;;5093723;28;20103;-67
2022/07/12 08:37:44;;;;;;;91.90;5.78;;;26.00;41.00;;;;;;5093744;28;20027;-69
2022/07/12 08:40:10;;;;;;;11.95;1.92;;;26.00;41.00;;;;;;5093675;28;20024;-71
2022/07/12 08:42:41;;;;;;;16.27;2.55;;;26.10;40.00;;;;;;5093361;28;20020;-68
2022/07/12 08:45:08;;;;;;;5.50;0.90;;;26.20;39.80;;;;;;5093465;28;20020;-67
2022/07/12 08:47:34;;;;;;;47.58;5.30;;;26.20;40.20;;;;;;5093382;28;20021;-66
2022/07/12 08:50:17;;;;;;;69.43;3.80;;;26.30;39.70;;;;;;5093245;28;20017;-69
2022/07/12 08:52:46;;;;;;;26.67;3.13;;;26.30;39.40;;;;;;5093457;28;20035;-71
2022/07/12 08:55:28;;;;;;;581.65;31.13;;;26.30;39.10;;;;;;5093396;28;20115;-70
2022/07/12 08:57:56;;;;;;;454.58;22.23;;;26.20;39.30;;;;;;5093343;28;20149;-69
2022/07/12 09:00:23;;;;;;;22.95;2.50;;;26.20;39.40;;;;;;5093248;28;20027;-72
2022/07/12 09:02:51;;;;;;;122.90;5.43;;;26.20;39.60;;;;;;5093447;28;20020;-71
2022/07/12 09:05:20;;;;;;;539.67;30.48;;;26.10;39.50;;;;;;5093402;28;20027;-71
2022/07/12 09:07:47;;;;;;;189.63;14.27;;;26.20;39.90;;;;;;5092716;28;20020;-72
2022/07/12 09:10:14;;;;;;;64.05;4.93;;;26.10;39.90;;;;;;5093314;28;20499;-71
2022/07/12 09:12:41;;;;;;;72.22;5.03;;;26.10;39.70;;;;;;5093310;28;20028;-69
2022/07/12 09:15:11;;;;;;;127.18;8.70;;;26.00;39.10;;;;;;5093248;28;20031;-70
2022/07/12 09:17:36;;;;;;;157.23;11.35;;;26.00;39.80;;;;;;5093251;28;20073;-68
2022/07/12 09:20:03;;;;;;;5.43;1.50;;;25.90;39.90;;;;;;5092909;28;20052;-68
2022/07/12 09:22:29;;;;;;;4.47;1.27;;;25.90;39.50;;;;;;5093037;28;20031;-66
2022/07/12 09:24:55;;;;;;;74.53;3.97;;;25.90;38.30;;;;;;5093044;28;20024;-70
2022/07/12 09:27:27;;;;;;;8.30;1.17;;;25.90;37.40;;;;;;5093122;28;20059;-68
2022/07/12 09:29:52;;;;;;;341.25;19.63;;;26.00;36.90;;;;;;5093097;28;20031;-70
2022/07/12 09:37:48;;;;;;;40.88;3.38;;;26.10;38.50;;;;;;5093022;28;20093;-71
2022/07/12 09:40:14;;;;;;;23.13;1.80;;;26.20;38.90;;;;;;5092919;28;20032;-68
2022/07/12 09:42:40;;;;;;;21.20;1.48;;;26.20;37.70;;;;;;5092650;28;20107;-69
2022/07/12 09:45:10;;;;;;;27.73;2.75;;;26.20;37.30;;;;;;5091631;28;20024;-68
2022/07/12 09:47:36;;;;;;;315.80;16.50;;;26.40;37.70;;;;;;5092849;28;20095;-68
2022/07/12 09:50:04;;;;;;;63.75;4.63;;;26.40;37.20;;;;;;5091417;28;20027;-71
2022/07/12 09:52:31;;;;;;;92.45;5.18;;;26.50;36.80;;;;;;5091469;28;20103;-66
2022/07/12 09:54:59;;;;;;;5.35;1.55;;;26.60;36.40;;;;;;5092636;28;20020;-69
2022/07/12 09:57:31;;;;;;;8.00;1.48;;;26.60;36.40;;;;;;5092713;28;20024;-68
2022/07/12 09:59:58;;;;;;;9.85;1.20;;;26.70;36.30;;;;;;5092746;28;20408;-68
2022/07/12 10:02:25;;;;;;;2.92;1.10;;;26.70;36.10;;;;;;5092593;28;20093;-67
2022/07/12 10:04:52;;;;;;;9.52;1.17;;;26.80;35.90;;;;;;5092622;28;20067;-69
2022/07/12 10:07:18;;;;;;;3.42;0.90;;;26.90;34.60;;;;;;5092598;28;20473;-69
2022/07/12 10:09:47;;;;;;;79.03;4.45;;;27.00;34.50;;;;;;5092569;28;20217;-69
2022/07/12 10:12:16;;;;;;;1.83;0.90;;;27.10;33.30;;;;;;5092596;28;20035;-69
2022/07/12 10:15:02;;;;;;;1.67;0.90;;;27.10;33.10;;;;;;5092682;28;20115;-68
2022/07/12 10:17:30;;;;;;;1.08;0.77;;;27.20;33.30;;;;;;5091334;28;20389;-69
2022/07/12 10:20:31;;;;;;;6.00;1.20;;;27.30;31.90;;;;;;5093906;28;20048;-68
2022/07/12 10:23:20;;;;;;;11.98;1.10;;;27.40;33.00;;;;;;5073857;28;20032;-69
2022/07/12 10:25:49;;;;;;;6.32;1.80;;;27.50;31.30;;;;;;5067420;28;20039;-68
2022/07/12 10:28:15;;;;;;;5.20;1.05;;;27.50;31.60;;;;;;5073854;28;20438;-67
2022/07/12 10:30:45;;;;;;;5.15;1.30;;;27.60;31.10;;;;;;5073848;28;20060;-67
2022/07/12 10:33:19;;;;;;;22.63;2.33;;;27.60;30.30;;;;;;5073727;28;20064;-67
2022/07/12 10:35:59;;;;;;;45.92;3.78;;;27.50;31.30;;;;;;5073771;28;20391;-68
2022/07/12 10:38:25;;;;;;;1.17;0.93;;;27.50;31.10;;;;;;5073659;28;20032;-68
2022/07/12 10:40:51;;;;;;;1.23;0.85;;;27.60;31.50;;;;;;5073476;28;20440;-68
2022/07/12 10:44:04;;;;;;;2.50;1.00;;;27.70;31.70;;;;;;5073316;28;20059;-68
2022/07/12 10:46:15;;;;;;;1.38;1.20;;;27.70;31.20;;;;;;5073331;28;20555;-70
2022/07/12 10:48:42;;;;;;;0.80;0.80;;;27.90;31.00;;;;;;5073390;28;20439;-68
2022/07/12 10:51:21;;;;;;;11.38;1.63;;;27.90;31.10;;;;;;5056429;28;20033;-70
2022/07/12 10:53:50;;;;;;;47.83;3.72;;;28.10;31.60;;;;;;5058517;28;20028;-70
2022/07/12 10:56:20;;;;;;;5.97;1.35;;;28.30;31.30;;;;;;5093982;28;20039;-68
2022/07/12 10:58:57;;;;;;;27.80;3.60;;;28.50;31.10;;;;;;5095720;28;20024;-67
2022/07/12 11:01:26;;;;;;;28.60;2.95;;;28.70;30.10;;;;;;5095504;28;20476;-69
2022/07/12 11:04:06;;;;;;;11.68;1.77;;;28.80;30.50;;;;;;5095581;28;20099;-70
2022/07/12 11:06:43;;;;;;;16.17;2.13;;;28.90;30.50;;;;;;5095532;28;20069;-69
2022/07/12 11:09:12;;;;;;;54.10;2.65;;;29.00;30.60;;;;;;5095506;28;20473;-68
2022/07/12 11:11:48;;;;;;;202.80;11.25;;;29.10;30.20;;;;;;5095309;28;20024;-70
2022/07/12 11:14:40;;;;;;;1.92;1.00;;;29.20;30.70;;;;;;5095221;28;20031;-69
2022/07/12 11:17:06;;;;;;;7.88;1.95;;;29.30;31.10;;;;;;5093202;28;20039;-69
2022/07/12 11:19:33;;;;;;;7.68;1.70;;;29.40;30.20;;;;;;5095068;28;21348;-70
2022/07/12 11:21:59;;;;;;;32.53;2.97;;;29.60;30.30;;;;;;5095172;28;20077;-70
2022/07/12 11:24:27;;;;;;;255.57;16.00;;;29.80;29.70;;;;;;5095169;28;20020;-69
2022/07/12 11:26:53;;;;;;;10.75;2.00;;;29.90;30.20;;;;;;5095028;28;20058;-70
2022/07/12 11:29:19;;;;;;;7.82;1.42;;;30.10;29.90;;;;;;5094942;28;20027;-67
2022/07/12 11:31:46;;;;;;;49.83;3.90;;;30.20;29.30;;;;;;5094378;28;20052;-70
2022/07/12 11:34:20;;;;;;;305.95;21.52;;;30.30;28.80;;;;;;5094572;28;20477;-69
2022/07/12 11:36:47;;;;;;;15.75;2.05;;;30.40;28.90;;;;;;5094705;28;20465;-69
2022/07/12 11:39:13;;;;;;;20.33;2.28;;;30.40;28.60;;;;;;5094736;28;20028;-68
2022/07/12 11:41:39;;;;;;;469.52;37.83;;;30.50;28.60;;;;;;5094464;28;20377;-69
2022/07/12 11:44:04;;;;;;;17.60;1.58;;;30.40;28.40;;;;;;5094476;28;20032;-67
2022/07/12 11:46:30;;;;;;;45.88;2.40;;;30.40;28.20;;;;;;5094475;28;20032;-69
2022/07/12 11:48:59;;;;;;;136.10;7.45;;;30.40;28.10;;;;;;5094330;28;20028;-67
2022/07/12 11:51:27;;;;;;;12.82;1.83;;;30.40;28.70;;;;;;5092969;28;20028;-69
2022/07/12 11:53:53;;;;;;;6.90;0.93;;;30.30;28.40;;;;;;5094313;28;20069;-68
2022/07/12 11:56:31;;;;;;;25.27;1.73;;;30.40;28.40;;;;;;5094384;28;20024;-68
2022/07/12 11:58:57;;;;;;;4.38;1.05;;;30.50;28.10;;;;;;5094197;28;20027;-68
2022/07/12 12:01:25;;;;;;;2.08;0.68;;;30.50;28.30;;;;;;5094063;28;20056;-70
2022/07/12 12:03:52;;;;;;;2.47;0.63;;;30.60;28.10;;;;;;5093936;28;20039;-69
2022/07/12 12:06:17;;;;;;;4.50;0.60;;;30.60;27.30;;;;;;5093823;28;20028;-70
2022/07/12 12:08:45;;;;;;;62.72;5.40;;;30.50;27.50;;;;;;5094042;28;20066;-69
2022/07/12 12:11:10;;;;;;;9.73;1.00;;;30.40;27.90;;;;;;5094073;28;20024;-68
2022/07/12 12:13:36;;;;;;;707.70;53.55;;;30.30;28.00;;;;;;5094041;28;20350;-68
2022/07/12 12:16:05;;;;;;;38.22;5.47;;;30.20;27.50;;;;;;5092597;28;20443;-71
2022/07/12 12:18:39;;;;;;;16.83;2.35;;;30.10;27.90;;;;;;5093933;28;20507;-69
2022/07/12 12:21:07;;;;;;;2.83;0.88;;;30.10;28.10;;;;;;5093572;28;20101;-68
2022/07/12 12:23:33;;;;;;;1.65;0.70;;;30.00;28.20;;;;;;5093901;28;20111;-68
2022/07/12 12:26:16;;;;;;;1.25;0.65;;;30.00;28.70;;;;;;5092565;28;20377;-70
2022/07/12 12:28:49;;;;;;;2.53;0.65;;;30.10;28.50;;;;;;5093819;28;20016;-68
2022/07/12 12:31:17;;;;;;;1.85;0.80;;;30.10;28.50;;;;;;5093502;28;20032;-71
2022/07/12 12:33:48;;;;;;;2.35;0.82;;;30.20;28.40;;;;;;5093524;28;20032;-68
2022/07/12 12:36:20;;;;;;;4.88;1.00;;;30.20;28.50;;;;;;5093560;28;20385;-69
2022/07/12 12:38:47;;;;;;;9.43;1.00;;;30.20;28.30;;;;;;5092226;28;20020;-69
2022/07/12 12:41:13;;;;;;;8.18;0.95;;;30.20;28.10;;;;;;5093373;28;20016;-68
2022/07/12 12:43:40;;;;;;;6.78;1.40;;;30.20;28.10;;;;;;5091517;28;20370;-70
2022/07/12 12:46:06;;;;;;;1.42;0.80;;;30.20;29.10;;;;;;5093461;28;20473;-69
2022/07/12 12:48:33;;;;;;;5.10;0.60;;;30.20;28.00;;;;;;5093497;28;20020;-68
2022/07/12 12:51:05;;;;;;;0.98;0.70;;;30.30;28.10;;;;;;5093469;28;20016;-68
2022/07/12 12:53:31;;;;;;;3.70;0.80;;;30.50;28.20;;;;;;5093353;28;20024;-70
2022/07/12 12:55:57;;;;;;;1.00;0.60;;;30.60;28.10;;;;;;5093345;28;20141;-71